TimeCST,TemperatureF,Dew PointF,Humidity,Sea Level PressureIn,VisibilityMPH,Wind Direction,Wind SpeedMPH,Gust SpeedMPH,PrecipitationIn,Events,Conditions,WindDirDegrees,DateUTC
12:54 AM,37.9,34.0,86,30.10,10.0,ENE,4.6,-,N/A,,Overcast,60,2012-11-06 06:54:00
1:54 AM,37.9,35.1,89,30.10,10.0,NE,3.5,-,N/A,,Overcast,50,2012-11-06 07:54:00
2:54 AM,37.9,35.1,89,30.08,10.0,Calm,Calm,-,N/A,,Overcast,0,2012-11-06 08:54:00
3:54 AM,34.0,32.0,92,30.06,9.0,East,4.6,-,N/A,,Mostly Cloudy,90,2012-11-06 09:54:00
4:54 AM,36.0,35.1,97,30.08,7.0,Calm,Calm,-,N/A,,Overcast,0,2012-11-06 10:54:00
5:54 AM,37.0,35.1,93,30.06,8.0,East,4.6,-,N/A,,Overcast,90,2012-11-06 11:54:00
6:54 AM,36.0,35.1,97,30.06,6.0,Calm,Calm,-,N/A,,Overcast,0,2012-11-06 12:54:00
7:54 AM,37.9,35.1,89,30.05,7.0,Calm,Calm,-,N/A,,Overcast,0,2012-11-06 13:54:00
8:54 AM,41.0,35.1,79,30.05,8.0,South,5.8,-,N/A,,Overcast,190,2012-11-06 14:54:00
9:54 AM,42.1,36.0,79,30.03,9.0,SSW,4.6,-,N/A,,Overcast,210,2012-11-06 15:54:00
10:54 AM,43.0,36.0,76,30.03,8.0,WSW,4.6,-,N/A,,Overcast,250,2012-11-06 16:54:00
11:54 AM,45.0,36.0,71,29.99,10.0,SSW,10.4,-,N/A,,Overcast,210,2012-11-06 17:54:00
12:54 PM,45.0,37.9,76,29.96,8.0,South,8.1,-,0.00,Rain,Light Rain,190,2012-11-06 18:54:00
1:54 PM,44.1,39.9,85,29.94,5.0,SW,8.1,-,0.02,Rain,Light Rain,230,2012-11-06 19:54:00
2:16 PM,44.6,42.8,93,29.93,4.0,WSW,3.5,-,0.01,Rain,Light Rain,250,2012-11-06 20:16:00
2:54 PM,43.0,42.1,97,29.95,2.0,SW,4.6,-,0.02,Rain,Light Rain,230,2012-11-06 20:54:00
3:17 PM,42.8,42.8,100,29.93,3.0,SSW,6.9,-,0.01,Rain,Light Rain,210,2012-11-06 21:17:00
3:24 PM,42.8,42.8,100,29.93,2.0,SSW,5.8,-,0.02,Rain,Light Rain,210,2012-11-06 21:24:00
3:54 PM,43.0,43.0,100,29.94,2.0,South,3.5,-,0.02,Rain,Light Rain,170,2012-11-06 21:54:00
4:54 PM,43.0,43.0,100,29.94,2.0,South,5.8,-,0.02,Rain,Light Rain,180,2012-11-06 22:54:00
5:10 PM,42.8,42.8,100,29.92,4.0,South,9.2,-,0.00,Rain,Light Rain,190,2012-11-06 23:10:00
5:24 PM,42.8,42.8,100,29.92,5.0,South,6.9,-,0.00,,Overcast,190,2012-11-06 23:24:00
5:54 PM,42.1,42.1,100,29.94,4.0,South,8.1,-,0.00,,Overcast,190,2012-11-06 23:54:00
6:54 PM,42.1,42.1,100,29.94,3.0,South,8.1,-,0.01,Rain,Light Rain,190,2012-11-07 00:54:00
7:23 PM,42.8,42.8,100,29.92,3.0,South,5.8,-,0.01,Rain,Light Rain,190,2012-11-07 01:23:00
7:35 PM,42.8,42.8,100,29.91,2.5,South,5.8,-,0.01,Rain,Light Rain,190,2012-11-07 01:35:00
7:52 PM,42.8,42.8,100,29.91,2.5,SW,4.6,-,0.02,Rain,Light Rain,220,2012-11-07 01:52:00
7:54 PM,43.0,43.0,100,29.93,2.5,SW,4.6,-,0.02,Rain,Light Rain,230,2012-11-07 01:54:00
8:10 PM,42.8,42.8,100,29.92,2.0,SW,3.5,-,0.00,,Overcast,230,2012-11-07 02:10:00
8:42 PM,42.8,42.8,100,29.91,3.0,Calm,Calm,-,0.00,,Overcast,0,2012-11-07 02:42:00
8:54 PM,43.0,43.0,100,29.93,4.0,West,5.8,-,0.00,,Overcast,270,2012-11-07 02:54:00
9:54 PM,43.0,43.0,100,29.92,6.0,WNW,8.1,-,N/A,,Overcast,300,2012-11-07 03:54:00
10:41 PM,42.8,42.8,100,29.91,5.0,WNW,5.8,-,N/A,,Mostly Cloudy,290,2012-11-07 04:41:00
10:52 PM,41.0,41.0,100,29.90,5.0,West,4.6,-,N/A,,Partly Cloudy,280,2012-11-07 04:52:00
10:54 PM,41.0,41.0,100,29.91,5.0,West,3.5,-,N/A,,Partly Cloudy,280,2012-11-07 04:54:00
11:18 PM,41.0,41.0,100,29.90,5.0,West,5.8,-,N/A,,Mostly Cloudy,270,2012-11-07 05:18:00
11:22 PM,41.0,41.0,100,29.90,4.0,West,6.9,-,N/A,,Mostly Cloudy,270,2012-11-07 05:22:00
11:38 PM,41.0,41.0,100,29.90,2.0,West,5.8,-,N/A,,Overcast,280,2012-11-07 05:38:00
11:54 PM,41.0,41.0,100,29.91,4.0,West,4.6,-,N/A,,Overcast,270,2012-11-07 05:54:00